Time;durP1;ratioP1;P1;durP2;ratioP2;P2;SDS_P1;SDS_P2;PMS_P1;PMS_P2;Temp;Humidity;BMP_temperature;BMP_pressure;BME280_temperature;BME280_humidity;BME280_pressure;Samples;Min_cycle;Max_cycle;Signal;HPM_P1;HPM_P2
2024/01/11 00:00:30;;;;;;;1.23;1.13;;;;;;;-143.84;52.71;45285.19;5111834;28;20651;-58
2024/01/11 00:02:59;;;;;;;1.67;1.48;;;;;;;-143.84;52.59;45296.63;5111869;28;20581;-58
2024/01/11 00:05:26;;;;;;;0.80;0.60;;;;;;;-143.84;52.24;45260.44;5111649;28;20205;-58
2024/01/11 00:07:53;;;;;;;0.80;0.80;;;;;;;-143.84;52.48;45300.44;5112068;28;20611;-59
2024/01/11 00:10:21;;;;;;;0.80;0.60;;;;;;;-143.84;52.03;45269.97;5111633;28;20647;-58
2024/01/11 00:12:48;;;;;;;0.80;0.50;;;;;;;-143.84;52.51;45269.97;5111453;28;20220;-58
2024/01/11 00:15:15;;;;;;;0.80;0.50;;;;;;;-143.84;52.50;45292.81;5111470;28;20197;-58
2024/01/11 00:17:42;;;;;;;0.80;0.50;;;;;;;-143.84;52.47;45281.38;5111924;28;20193;-58
2024/01/11 00:20:12;;;;;;;0.80;0.50;;;;;;;-143.84;52.10;45277.56;5111219;28;20244;-58
2024/01/11 00:22:39;;;;;;;0.80;0.50;;;;;;;-143.84;52.09;45252.81;5111741;28;20219;-58
2024/01/11 00:25:06;;;;;;;0.80;0.70;;;;;;;-143.84;51.73;45268.06;5111262;28;20675;-58
2024/01/11 00:27:34;;;;;;;0.80;0.50;;;;;;;-143.84;51.30;45231.88;5111170;28;20735;-58
2024/01/11 00:30:01;;;;;;;0.80;0.50;;;;;;;-143.84;51.33;45285.19;5111024;28;20282;-58
2024/01/11 00:32:28;;;;;;;1.88;0.98;;;;;;;-143.84;50.68;45275.66;5110820;28;20217;-58
2024/01/11 00:34:55;;;;;;;1.00;0.85;;;;;;;-143.84;50.41;45256.63;5111474;28;20193;-58
2024/01/11 00:37:25;;;;;;;0.90;0.68;;;;;;;-143.84;50.48;45275.66;5110886;28;20197;-58
2024/01/11 00:39:52;;;;;;;0.80;0.70;;;;;;;-143.84;50.44;45275.66;5110997;28;20197;-58
2024/01/11 00:42:19;;;;;;;0.80;0.50;;;;;;;-143.84;49.88;45271.88;5111005;28;20210;-58
2024/01/11 00:44:46;;;;;;;1.65;1.55;;;;;;;-143.84;49.90;45289.00;5111122;28;20208;-58
2024/01/11 00:47:13;;;;;;;1.35;0.90;;;;;;;-143.84;49.45;45266.16;5111231;28;20189;-58
2024/01/11 00:49:40;;;;;;;0.80;0.50;;;;;;;-143.84;49.24;45249.00;5110810;28;20189;-58
2024/01/11 00:52:08;;;;;;;0.80;0.50;;;;;;;-143.84;49.37;45271.88;5110841;28;20691;-58
2024/01/11 00:54:36;;;;;;;1.38;0.80;;;;;;;-143.84;48.98;45266.16;5110663;28;20693;-58
2024/01/11 00:57:04;;;;;;;0.80;0.40;;;;;;;-143.84;48.79;45264.25;5110850;28;20594;-58
2024/01/11 00:59:31;;;;;;;0.90;0.77;;;;;;;-143.84;48.29;45277.56;5110312;28;20193;-58
2024/01/11 01:01:58;;;;;;;0.80;0.50;;;;;;;-143.84;48.46;45254.72;5110454;28;20246;-58
2024/01/11 01:04:25;;;;;;;0.80;0.50;;;;;;;-143.84;48.07;45300.44;5110812;28;20185;-58
2024/01/11 01:06:52;;;;;;;0.80;0.52;;;;;;;-143.84;47.97;45256.63;5110454;28;20254;-58
2024/01/11 01:09:19;;;;;;;0.80;0.50;;;;;;;-143.84;47.77;45269.97;5110379;28;20309;-58
2024/01/11 01:11:48;;;;;;;0.80;0.50;;;;;;;-143.84;47.71;45271.88;5110506;28;20209;-58
2024/01/11 01:14:15;;;;;;;0.80;0.50;;;;;;;-143.84;47.51;45296.63;5110461;28;20250;-58
2024/01/11 01:16:43;;;;;;;1.00;0.70;;;;;;;-143.84;47.67;45264.25;5110280;28;20651;-58
2024/01/11 01:19:10;;;;;;;0.80;0.50;;;;;;;-143.84;47.33;45258.53;5110316;28;20257;-58
2024/01/11 01:21:37;;;;;;;0.80;0.50;;;;;;;-143.84;47.05;45254.72;5110079;28;20229;-58
2024/01/11 01:24:04;;;;;;;0.80;0.50;;;;;;;-143.84;46.89;45271.88;5110158;28;20281;-58
2024/01/11 01:26:32;;;;;;;0.90;0.80;;;;;;;-143.84;46.86;45254.72;5110202;28;20197;-59
2024/01/11 01:29:00;;;;;;;0.90;0.77;;;;;;;-143.84;46.45;45266.16;5110351;28;20193;-58
2024/01/11 01:31:28;;;;;;;0.80;0.40;;;;;;;-143.84;46.38;45285.19;5110301;28;20269;-58
2024/01/11 01:33:55;;;;;;;0.80;0.50;;;;;;;-143.84;45.94;45283.28;5110315;28;20236;-58
2024/01/11 01:36:22;;;;;;;0.80;0.50;;;;;;;-143.84;45.66;45231.88;5110112;28;20262;-58
2024/01/11 01:38:49;;;;;;;0.80;0.40;;;;;;;-143.84;45.72;45220.44;5110022;28;20254;-58
2024/01/11 01:41:16;;;;;;;0.80;0.50;;;;;;;-143.84;45.90;45266.16;5110473;28;20669;-58
2024/01/11 01:43:43;;;;;;;0.80;0.60;;;;;;;-143.84;45.90;45262.34;5110384;28;20194;-58
2024/01/11 01:46:14;;;;;;;0.80;0.50;;;;;;;-143.84;45.81;45283.28;5110141;28;20197;-58
2024/01/11 01:48:42;;;;;;;0.80;0.60;;;;;;;-143.84;45.42;45264.25;5110019;28;20647;-58
2024/01/11 01:51:10;;;;;;;0.80;0.50;;;;;;;-143.84;45.81;45247.09;5110038;28;20270;-58
2024/01/11 01:53:37;;;;;;;0.80;0.50;;;;;;;-143.84;45.78;45271.88;5110056;28;20193;-58
2024/01/11 01:56:06;;;;;;;0.80;0.50;;;;;;;-143.84;45.55;45235.69;5109995;28;20605;-58
2024/01/11 01:58:34;;;;;;;0.80;0.50;;;;;;;-143.84;45.37;45277.56;5109846;28;20193;-58
2024/01/11 02:01:02;;;;;;;0.80;0.50;;;;;;;-143.84;44.82;45252.81;5109916;28;20197;-58
2024/01/11 02:03:31;;;;;;;0.80;0.50;;;;;;;-143.84;44.98;45266.16;5109917;28;20697;-58
2024/01/11 02:05:59;;;;;;;0.80;0.50;;;;;;;-143.84;44.64;45271.88;5109868;28;20651;-58
2024/01/11 02:08:28;;;;;;;0.80;0.50;;;;;;;-143.84;44.86;45258.53;5109639;28;20202;-58
2024/01/11 02:10:55;;;;;;;0.80;0.50;;;;;;;-143.84;44.71;45266.16;5109947;28;20201;-58
2024/01/11 02:13:23;;;;;;;0.80;0.52;;;;;;;-143.84;44.66;45283.28;5113927;28;20246;-58
2024/01/11 02:15:50;;;;;;;0.80;0.70;;;;;;;-143.84;45.08;45285.19;5113795;28;20544;-58
2024/01/11 02:18:18;;;;;;;0.80;0.50;;;;;;;-143.84;44.52;45279.47;5113942;28;20263;-58
2024/01/11 02:20:47;;;;;;;0.80;0.50;;;;;;;-143.84;44.49;45260.44;5113521;28;20229;-58
2024/01/11 02:23:19;;;;;;;0.80;0.50;;;;;;;-143.84;44.39;45260.44;5113725;28;20197;-58
2024/01/11 02:25:47;;;;;;;0.80;0.50;;;;;;;-143.84;44.21;45264.25;5113838;28;20233;-58
2024/01/11 02:28:15;;;;;;;0.80;0.50;;;;;;;-143.84;44.36;45260.44;5113189;28;20251;-58
2024/01/11 02:30:43;;;;;;;0.80;0.50;;;;;;;-143.84;44.50;45258.53;5113825;28;20194;-58
2024/01/11 02:33:15;;;;;;;0.80;0.50;;;;;;;-143.84;44.24;45266.16;5113375;28;20213;-58
2024/01/11 02:35:43;;;;;;;1.55;1.45;;;;;;;-143.84;44.10;45273.78;5113751;28;21014;-59
2024/01/11 02:38:10;;;;;;;0.80;0.60;;;;;;;-143.84;43.95;45243.31;5113703;28;20205;-58
2024/01/11 02:40:39;;;;;;;0.80;0.50;;;;;;;-143.84;44.24;45247.09;5113751;28;20255;-58
2024/01/11 02:43:11;;;;;;;0.80;0.50;;;;;;;-143.84;43.96;45266.16;5113603;28;20197;-58
2024/01/11 02:45:39;;;;;;;0.80;0.50;;;;;;;-143.84;44.10;45289.00;5113513;28;20266;-58
2024/01/11 02:48:06;;;;;;;0.80;0.57;;;;;;;-143.84;43.96;45277.56;5113133;28;20223;-58
2024/01/11 02:50:34;;;;;;;0.80;0.50;;;;;;;-143.84;43.99;45243.31;5113596;28;20193;-58
2024/01/11 02:53:01;;;;;;;0.80;0.50;;;;;;;-143.84;44.01;45273.78;5113304;28;20232;-58
2024/01/11 02:55:28;;;;;;;0.80;0.60;;;;;;;-143.84;44.09;45239.50;5113291;28;20197;-58
2024/01/11 02:57:55;;;;;;;0.80;0.50;;;;;;;-143.84;43.95;45264.25;5113314;28;20197;-58
2024/01/11 03:00:23;;;;;;;0.80;0.50;;;;;;;-143.84;44.13;45277.56;5113125;28;20217;-58
2024/01/11 03:02:51;;;;;;;0.80;0.50;;;;;;;-143.84;43.84;45258.53;5112538;28;20193;-57
2024/01/11 03:05:18;;;;;;;0.80;0.68;;;;;;;-143.84;44.06;45271.88;5112715;28;20232;-58
2024/01/11 03:07:45;;;;;;;0.80;0.40;;;;;;;-143.84;44.11;45254.72;5112831;28;20201;-58
2024/01/11 03:10:12;;;;;;;0.80;0.50;;;;;;;-143.84;43.96;45264.25;5112804;28;20908;-58
2024/01/11 03:12:41;;;;;;;0.80;0.50;;;;;;;-143.84;43.76;45258.53;5112849;28;20221;-58
2024/01/11 03:15:08;;;;;;;0.80;0.50;;;;;;;-143.84;44.44;45269.97;5113333;27;20755;-58
2024/01/11 03:17:37;;;;;;;0.90;0.68;;;;;;;-143.84;44.23;45254.72;5112330;28;20189;-58
2024/01/11 03:20:05;;;;;;;0.80;0.40;;;;;;;-143.84;44.04;45281.38;5111818;28;20233;-58
2024/01/11 03:22:32;;;;;;;0.80;0.50;;;;;;;-143.84;44.12;45283.28;5111508;28;20201;-58
2024/01/11 03:25:01;;;;;;;0.80;0.50;;;;;;;-143.84;44.28;45243.31;5112235;28;20797;-58
2024/01/11 03:27:28;;;;;;;0.80;0.40;;;;;;;-143.84;44.01;45256.63;5112172;28;20242;-58
2024/01/11 03:29:55;;;;;;;0.80;0.50;;;;;;;-143.84;44.02;45247.09;5111897;28;20189;-58
2024/01/11 03:32:22;;;;;;;0.80;0.50;;;;;;;-143.84;44.16;45264.25;5112255;28;20229;-58
2024/01/11 03:34:50;;;;;;;0.80;0.50;;;;;;;-143.84;44.01;45264.25;5112280;28;20593;-58
2024/01/11 03:37:18;;;;;;;0.80;0.47;;;;;;;-143.84;44.13;45283.28;5112169;28;20623;-58
2024/01/11 03:39:45;;;;;;;0.80;0.50;;;;;;;-143.84;44.09;45256.63;5112184;28;20201;-57
2024/01/11 03:42:12;;;;;;;0.80;0.60;;;;;;;-143.84;44.13;45258.53;5112317;28;21015;-58
2024/01/11 03:44:39;;;;;;;0.80;0.50;;;;;;;-143.84;44.26;45281.38;5112148;28;20197;-58
2024/01/11 03:47:06;;;;;;;0.80;0.60;;;;;;;-143.84;44.01;45279.47;5112016;28;20197;-58
2024/01/11 03:49:33;;;;;;;1.50;1.20;;;;;;;-143.84;44.09;45250.91;5111968;28;20205;-57
2024/01/11 03:52:02;;;;;;;1.05;0.95;;;;;;;-143.84;44.01;45235.69;5111789;28;20221;-58
2024/01/11 03:54:29;;;;;;;0.80;0.50;;;;;;;-143.84;44.03;45289.00;5111909;28;20235;-58
2024/01/11 03:56:56;;;;;;;1.15;1.05;;;;;;;-143.84;44.16;45258.53;5111561;28;20250;-58
2024/01/11 03:59:24;;;;;;;0.80;0.50;;;;;;;-143.84;44.38;45256.63;5112062;28;20658;-58
2024/01/11 04:01:51;;;;;;;1.23;0.75;;;;;;;-143.84;44.53;45250.91;5111784;28;20631;-58
2024/01/11 04:04:18;;;;;;;0.80;0.40;;;;;;;-143.84;44.57;45247.09;5111475;28;20230;-58
2024/01/11 04:06:46;;;;;;;0.80;0.50;;;;;;;-143.84;44.00;45235.69;5111932;28;20585;-58
2024/01/11 04:09:14;;;;;;;0.80;0.50;;;;;;;-143.84;44.21;45241.41;5111439;28;20284;-58
2024/01/11 04:11:41;;;;;;;2.28;1.73;;;;;;;-143.84;44.35;45266.16;5111378;28;20205;-58
2024/01/11 04:14:08;;;;;;;0.80;0.40;;;;;;;-143.84;44.38;45258.53;5111418;28;20746;-58
2024/01/11 04:16:40;;;;;;;0.80;0.40;;;;;;;-143.84;44.57;45262.34;5111559;28;20708;-58
2024/01/11 04:19:07;;;;;;;0.80;0.60;;;;;;;-143.84;44.36;45252.81;5111189;28;20205;-58
2024/01/11 04:21:35;;;;;;;0.80;0.50;;;;;;;-143.84;44.33;45262.34;5111056;28;20225;-58
2024/01/11 04:24:02;;;;;;;0.93;0.82;;;;;;;-143.84;44.39;45262.34;5111392;28;20337;-58
2024/01/11 04:26:30;;;;;;;9.48;2.35;;;;;;;-143.84;44.10;45290.91;5109772;28;20201;-57
2024/01/11 04:28:59;;;;;;;1.25;1.15;;;;;;;-143.84;43.90;45252.81;5111317;28;20197;-58
2024/01/11 04:31:26;;;;;;;0.80;0.50;;;;;;;-143.84;44.55;45262.34;5110867;28;20593;-58
2024/01/11 04:33:54;;;;;;;0.93;0.80;;;;;;;-143.84;44.22;45266.16;5111258;28;20220;-58
2024/01/11 04:36:21;;;;;;;0.80;0.70;;;;;;;-143.84;44.29;45277.56;5111246;28;20284;-59
2024/01/11 04:38:48;;;;;;;0.80;0.50;;;;;;;-143.84;44.21;45239.50;5111136;28;20696;-58
2024/01/11 04:41:16;;;;;;;0.80;0.50;;;;;;;-143.84;44.09;45264.25;5111219;28;20194;-58
2024/01/11 04:43:45;;;;;;;0.80;0.70;;;;;;;-143.84;43.97;45264.25;5110837;28;20206;-58
2024/01/11 04:46:17;;;;;;;0.80;0.50;;;;;;;-143.84;44.42;45250.91;5111093;28;20201;-59
2024/01/11 04:48:44;;;;;;;0.80;0.50;;;;;;;-143.84;44.01;45266.16;5111216;28;20964;-58
2024/01/11 04:51:12;;;;;;;0.80;0.43;;;;;;;-143.84;43.61;45249.00;5110830;28;20716;-58
2024/01/11 04:53:39;;;;;;;0.80;0.50;;;;;;;-143.84;43.85;45254.72;5110899;28;20467;-58
2024/01/11 04:56:08;;;;;;;0.80;0.50;;;;;;;-143.84;43.67;45283.28;5101845;28;20194;-60
2024/01/11 04:58:35;;;;;;;0.90;0.70;;;;;;;-143.84;43.61;45273.78;5091544;28;20515;-60
2024/01/11 05:01:04;;;;;;;0.80;0.50;;;;;;;-143.84;43.73;45243.31;5109036;28;20197;-60
2024/01/11 05:03:31;;;;;;;0.80;0.50;;;;;;;-143.84;43.10;45247.09;5108997;28;20193;-60
2024/01/11 05:05:58;;;;;;;0.80;0.67;;;;;;;-143.84;43.36;45243.31;5109215;28;20459;-60
2024/01/11 05:08:26;;;;;;;0.80;0.60;;;;;;;-143.84;43.57;45273.78;5108948;28;20466;-60
2024/01/11 05:10:53;;;;;;;0.80;0.50;;;;;;;-143.84;43.50;45266.16;5108876;28;20208;-60
2024/01/11 05:13:20;;;;;;;0.80;0.50;;;;;;;-143.84;43.53;45247.09;5108665;28;20798;-60
2024/01/11 05:15:47;;;;;;;0.80;0.50;;;;;;;-143.84;43.30;45266.16;5109129;28;20937;-60
2024/01/11 05:18:16;;;;;;;0.80;0.50;;;;;;;-143.84;43.04;45235.69;5109158;28;20283;-60
2024/01/11 05:20:43;;;;;;;0.80;0.50;;;;;;;-143.84;42.98;45269.97;5109074;28;20240;-60
2024/01/11 05:23:11;;;;;;;0.80;0.50;;;;;;;-143.84;42.71;45216.63;5109337;28;20443;-60
2024/01/11 05:25:38;;;;;;;2.00;1.90;;;;;;;-143.84;42.76;45260.44;5108888;28;20434;-60
2024/01/11 05:28:06;;;;;;;1.33;1.23;;;;;;;-143.84;42.79;45239.50;5108735;28;21013;-60
2024/01/11 05:30:34;;;;;;;0.80;0.50;;;;;;;-143.84;42.39;45237.59;5108849;28;20818;-60
2024/01/11 05:33:01;;;;;;;0.80;0.50;;;;;;;-143.84;42.56;45228.06;5108937;28;20475;-60
2024/01/11 05:35:30;;;;;;;0.80;0.50;;;;;;;-143.84;42.42;45262.34;5108967;28;20435;-60
2024/01/11 05:37:57;;;;;;;0.83;0.67;;;;;;;-143.84;42.50;45273.78;5108851;28;20504;-60
2024/01/11 05:40:24;;;;;;;0.80;0.60;;;;;;;-143.84;42.65;45271.88;5108827;28;20443;-60
2024/01/11 05:42:51;;;;;;;0.80;0.50;;;;;;;-143.84;42.40;45275.66;5108959;28;20439;-60
2024/01/11 05:45:18;;;;;;;0.80;0.40;;;;;;;-143.84;42.12;45256.63;5108478;28;20435;-60
2024/01/11 05:47:45;;;;;;;0.80;0.50;;;;;;;-143.84;41.82;45254.72;5108503;28;20511;-60
2024/01/11 05:50:13;;;;;;;1.00;0.70;;;;;;;-143.84;41.52;45279.47;5108942;28;20443;-60
2024/01/11 05:52:42;;;;;;;0.80;0.50;;;;;;;-143.84;40.91;45243.31;5108776;28;20485;-60
2024/01/11 05:55:09;;;;;;;1.00;0.80;;;;;;;-143.84;40.51;45249.00;5109045;28;20201;-60
2024/01/11 05:57:36;;;;;;;3.17;1.30;;;;;;;-143.84;40.26;45262.34;5108712;28;20929;-60
2024/01/11 06:00:04;;;;;;;0.90;0.70;;;;;;;-143.84;40.26;45256.63;5108688;28;20258;-60
2024/01/11 06:02:31;;;;;;;1.02;0.93;;;;;;;-143.84;39.86;45249.00;5108623;28;20451;-60
2024/01/11 06:04:59;;;;;;;0.80;0.50;;;;;;;-143.84;39.72;45220.44;5108770;28;20230;-60
2024/01/11 06:07:26;;;;;;;0.80;0.60;;;;;;;-143.84;39.75;45249.00;5108649;28;20977;-60
2024/01/11 06:09:54;;;;;;;0.80;0.50;;;;;;;-143.84;39.29;45268.06;5108954;28;20886;-60
2024/01/11 06:12:21;;;;;;;1.00;0.90;;;;;;;-143.84;39.26;45254.72;5108715;28;21398;-60
2024/01/11 06:14:48;;;;;;;15.80;2.70;;;;;;;-143.84;39.23;45266.16;5108787;28;20593;-60
2024/01/11 06:17:16;;;;;;;0.80;0.50;;;;;;;-143.84;39.04;45258.53;5108798;28;20850;-60
2024/01/11 06:19:43;;;;;;;1.77;1.30;;;;;;;-143.84;38.76;45233.78;5108537;28;20431;-60
2024/01/11 06:22:10;;;;;;;1.40;1.17;;;;;;;-143.84;38.32;45222.34;5109206;28;20437;-60
2024/01/11 06:24:37;;;;;;;2.70;1.73;;;;;;;-143.84;38.20;45250.91;5108586;28;20419;-60
2024/01/11 06:27:06;;;;;;;0.80;0.50;;;;;;;-143.84;37.84;45245.19;5108560;28;21210;-60
2024/01/11 06:29:33;;;;;;;0.80;0.50;;;;;;;-143.84;37.55;45231.88;5108643;28;20488;-60
2024/01/11 06:32:00;;;;;;;0.80;0.70;;;;;;;-143.84;37.07;45262.34;5108448;28;20588;-60
2024/01/11 06:34:28;;;;;;;0.80;0.50;;;;;;;-143.84;37.00;45262.34;5108249;28;20884;-60
2024/01/11 06:36:55;;;;;;;0.80;0.70;;;;;;;-143.84;36.82;45231.88;5108214;28;20482;-60
2024/01/11 06:39:23;;;;;;;0.80;0.50;;;;;;;-143.84;36.99;45256.63;5108503;28;20455;-60
2024/01/11 06:41:50;;;;;;;0.80;0.40;;;;;;;-143.84;36.33;45226.16;5108311;28;20487;-60
2024/01/11 06:44:19;;;;;;;1.83;0.90;;;;;;;-143.84;36.24;45269.97;5108262;28;20504;-60
2024/01/11 06:46:46;;;;;;;0.80;0.40;;;;;;;-143.84;36.19;45260.44;5108247;28;20473;-60
2024/01/11 06:49:14;;;;;;;0.80;0.50;;;;;;;-143.84;35.71;45214.72;5108619;28;20423;-60
2024/01/11 06:51:41;;;;;;;0.80;0.50;;;;;;;-143.84;35.59;45233.78;5108362;28;20454;-60
2024/01/11 06:54:08;;;;;;;0.80;0.50;;;;;;;-143.84;35.96;45239.50;5108212;28;21321;-60
2024/01/11 06:56:35;;;;;;;0.80;0.40;;;;;;;-143.84;35.54;45250.91;5108215;28;20443;-60
2024/01/11 06:59:03;;;;;;;0.80;0.43;;;;;;;-143.84;35.42;45224.25;5109992;28;20445;-60
2024/01/11 07:01:31;;;;;;;0.80;0.50;;;;;;;-143.84;35.54;45228.06;5111671;28;20431;-60
2024/01/11 07:03:59;;;;;;;0.80;0.50;;;;;;;-143.84;35.33;45239.50;5112017;28;20446;-60
2024/01/11 07:06:26;;;;;;;0.80;0.50;;;;;;;-143.84;35.42;45231.88;5111448;28;20450;-60
2024/01/11 07:08:53;;;;;;;0.80;0.50;;;;;;;-143.84;35.31;45212.84;5111760;28;20423;-60
2024/01/11 07:11:20;;;;;;;0.80;0.67;;;;;;;-143.84;35.38;45254.72;5111695;28;20778;-60
2024/01/11 07:13:47;;;;;;;0.80;0.50;;;;;;;-143.84;35.36;45224.25;5111657;28;20531;-60
2024/01/11 07:16:15;;;;;;;0.80;0.50;;;;;;;-143.84;35.22;45231.88;5111755;28;20439;-60
2024/01/11 07:18:43;;;;;;;1.37;0.90;;;;;;;-143.84;34.93;45241.41;5111675;28;20577;-60
2024/01/11 07:21:10;;;;;;;0.80;0.50;;;;;;;-143.84;35.13;45233.78;5111264;28;20479;-60
2024/01/11 07:23:37;;;;;;;1.30;1.20;;;;;;;-143.84;34.82;45239.50;5111072;28;20480;-60
2024/01/11 07:26:05;;;;;;;0.80;0.60;;;;;;;-143.84;34.25;45216.63;5111387;28;20843;-60
2024/01/11 07:28:32;;;;;;;0.80;0.47;;;;;;;-143.84;34.71;45239.50;5110200;28;20969;-60
2024/01/11 07:30:59;;;;;;;0.80;0.60;;;;;;;-143.84;34.35;45228.06;5111056;28;20439;-60
2024/01/11 07:33:26;;;;;;;0.80;0.60;;;;;;;-143.84;33.86;45231.88;5110813;28;20473;-60
2024/01/11 07:35:53;;;;;;;0.80;0.50;;;;;;;-143.84;33.43;45228.06;5111018;28;21014;-60
2024/01/11 07:38:20;;;;;;;0.80;0.70;;;;;;;-143.84;33.02;45243.31;5110560;28;20473;-60
2024/01/11 07:40:47;;;;;;;0.80;0.53;;;;;;;-143.84;32.62;45218.53;5110433;28;20870;-61
2024/01/11 07:43:15;;;;;;;0.80;0.60;;;;;;;-143.84;32.11;45214.72;5111048;28;20439;-61
2024/01/11 07:45:42;;;;;;;1.50;0.90;;;;;;;-143.84;31.75;45195.69;5110918;28;20446;-61
2024/01/11 07:48:09;;;;;;;2.20;1.77;;;;;;;-143.84;32.09;45228.06;5110550;28;20435;-61
2024/01/11 07:50:37;;;;;;;2.77;1.67;;;;;;;-143.84;32.26;45210.94;5109982;28;20954;-61
2024/01/11 07:53:06;;;;;;;0.80;0.50;;;;;;;-143.84;31.52;45209.03;5109973;28;20542;-61
2024/01/11 07:55:33;;;;;;;0.80;0.50;;;;;;;-143.84;31.93;45228.06;5110278;28;20446;-60
2024/01/11 07:58:00;;;;;;;0.80;0.60;;;;;;;-143.84;31.52;45199.50;5110170;28;20531;-60
2024/01/11 08:00:28;;;;;;;0.80;0.57;;;;;;;-143.84;31.86;45180.47;5110435;28;20426;-61
2024/01/11 08:02:55;;;;;;;0.80;0.70;;;;;;;-143.84;31.52;45207.13;5110667;28;20197;-61
2024/01/11 08:05:22;;;;;;;0.80;0.70;;;;;;;-143.84;32.11;45218.53;5109999;28;21160;-61
2024/01/11 08:07:49;;;;;;;0.80;0.50;;;;;;;-143.84;31.48;45189.97;5108826;28;20500;-61
2024/01/11 08:10:18;;;;;;;0.80;0.60;;;;;;;-143.84;31.32;45209.03;5102656;28;20462;-61
2024/01/11 08:12:45;;;;;;;2.27;0.73;;;;;;;-143.84;30.90;45195.69;5110379;28;20435;-61
2024/01/11 08:15:13;;;;;;;0.80;0.50;;;;;;;-143.84;30.57;45172.84;5110690;28;20571;-61
2024/01/11 08:17:40;;;;;;;0.80;0.50;;;;;;;-143.84;30.13;45197.59;5110449;28;20424;-60
2024/01/11 08:20:09;;;;;;;0.80;0.50;;;;;;;-143.84;30.53;45182.38;5110224;28;20512;-61
2024/01/11 08:22:37;;;;;;;1.07;0.90;;;;;;;-143.84;30.21;45220.44;5109828;28;20445;-61
2024/01/11 08:25:05;;;;;;;0.80;0.50;;;;;;;-143.84;30.09;45189.97;5109641;28;20521;-61
2024/01/11 08:27:33;;;;;;;0.80;0.40;;;;;;;-143.84;29.79;45214.72;5110043;28;20863;-61
2024/01/11 08:30:01;;;;;;;1.10;0.70;;;;;;;-143.84;29.64;45195.69;5110093;28;20584;-61
2024/01/11 08:32:28;;;;;;;0.80;0.40;;;;;;;-143.84;30.34;45188.06;5109930;28;20518;-61
2024/01/11 08:34:55;;;;;;;0.80;0.47;;;;;;;-143.84;29.70;45195.69;5109801;28;20477;-61
2024/01/11 08:37:23;;;;;;;0.80;0.50;;;;;;;-143.84;29.29;45191.88;5109782;28;20497;-60
2024/01/11 08:39:50;;;;;;;0.80;0.40;;;;;;;-143.84;29.56;45180.47;5109616;28;20447;-61
2024/01/11 08:42:17;;;;;;;1.20;0.93;;;;;;;-143.84;29.70;45180.47;5109781;28;20440;-60
2024/01/11 08:44:47;;;;;;;0.80;0.60;;;;;;;-143.84;29.74;45195.69;5109726;28;20447;-61
2024/01/11 08:47:14;;;;;;;0.80;0.60;;;;;;;-143.84;29.47;45195.69;5109670;28;20968;-61
2024/01/11 08:49:42;;;;;;;0.97;0.80;;;;;;;-143.84;30.41;45178.56;5109704;28;20520;-61
2024/01/11 08:52:09;;;;;;;0.80;0.60;;;;;;;-143.84;32.29;45163.31;5109354;28;20445;-61
2024/01/11 08:54:36;;;;;;;2.20;1.83;;;;;;;-143.84;32.81;45174.75;5108872;28;21003;-62
2024/01/11 08:57:03;;;;;;;1.93;1.00;;;;;;;-143.84;31.30;45214.72;5109216;28;20436;-60
2024/01/11 08:59:31;;;;;;;0.90;0.70;;;;;;;-143.84;30.18;45207.13;5109470;28;20497;-60
2024/01/11 09:01:59;;;;;;;1.43;1.20;;;;;;;-143.84;29.96;45180.47;5109468;28;20512;-60
2024/01/11 09:04:28;;;;;;;0.80;0.50;;;;;;;-143.84;29.92;45174.75;5109294;28;20494;-60
2024/01/11 09:06:56;;;;;;;0.80;0.50;;;;;;;-143.84;29.73;45209.03;5109238;28;20430;-61
2024/01/11 09:09:23;;;;;;;0.80;0.40;;;;;;;-143.84;29.49;45189.97;5108701;28;20453;-61
2024/01/11 09:11:50;;;;;;;0.80;0.77;;;;;;;-143.84;29.67;45178.56;5109143;28;20438;-60
2024/01/11 09:14:17;;;;;;;0.80;0.60;;;;;;;-143.84;28.87;45161.41;5109168;28;21003;-60
2024/01/11 09:16:45;;;;;;;1.07;0.80;;;;;;;-143.84;28.86;45193.78;5109055;28;20488;-60
2024/01/11 09:19:14;;;;;;;0.80;0.40;;;;;;;-143.84;28.50;45167.13;5109086;28;20526;-60
2024/01/11 09:21:42;;;;;;;0.90;0.53;;;;;;;-143.84;28.31;45169.03;5108325;28;20611;-60
2024/01/11 09:24:09;;;;;;;0.80;0.50;;;;;;;-143.84;28.45;45170.94;5108833;28;21145;-60
2024/01/11 09:26:37;;;;;;;0.80;0.50;;;;;;;-143.84;28.67;45155.69;5109551;28;21179;-60
2024/01/11 09:29:04;;;;;;;0.80;0.40;;;;;;;-143.84;27.62;45148.09;5109302;28;21362;-61
2024/01/11 09:31:31;;;;;;;4.40;0.70;;;;;;;-143.84;27.19;45174.75;5109389;28;21439;-61
2024/01/11 09:33:58;;;;;;;0.80;0.50;;;;;;;-143.84;28.03;45176.66;5108939;28;20540;-61
2024/01/11 09:36:26;;;;;;;0.80;0.50;;;;;;;-143.84;28.35;45184.25;5109177;28;20484;-59
2024/01/11 09:38:53;;;;;;;0.80;0.50;;;;;;;-143.84;28.16;45178.56;5108531;28;20836;-59
2024/01/11 09:41:21;;;;;;;0.80;0.50;;;;;;;-143.84;27.89;45170.94;5109054;28;20443;-59
2024/01/11 09:43:52;;;;;;;0.80;0.50;;;;;;;-143.84;29.07;45170.94;5108972;28;20474;-59
2024/01/11 09:46:20;;;;;;;0.80;0.53;;;;;;;-143.84;28.74;45167.13;5108726;28;20797;-58
2024/01/11 09:48:49;;;;;;;0.80;0.50;;;;;;;-143.84;28.13;45178.56;5108824;28;20442;-58
2024/01/11 09:51:17;;;;;;;0.97;0.87;;;;;;;-143.84;28.17;45199.50;5108803;28;20442;-59
2024/01/11 09:53:45;;;;;;;0.80;0.40;;;;;;;-143.84;28.36;45189.97;5108127;28;20491;-59
2024/01/11 09:56:12;;;;;;;1.10;0.83;;;;;;;-143.84;28.36;45186.16;5108503;28;20447;-59
2024/01/11 09:58:48;;;;;;;0.80;0.50;;;;;;;-143.84;28.91;45170.94;5104399;28;20444;-59
2024/01/11 10:01:15;;;;;;;0.80;0.50;;;;;;;-143.84;29.79;45167.13;5088624;28;21206;-59
2024/01/11 10:03:43;;;;;;;1.73;0.80;;;;;;;-143.84;28.56;45161.41;5088485;28;20509;-59
2024/01/11 10:06:10;;;;;;;1.47;0.70;;;;;;;-143.84;28.99;45205.22;5088399;28;21348;-58
2024/01/11 10:08:38;;;;;;;0.80;0.50;;;;;;;-143.84;29.81;45170.94;5087797;28;20440;-58
2024/01/11 10:11:07;;;;;;;0.80;0.40;;;;;;;-143.84;30.43;45186.16;5088294;28;20446;-58
2024/01/11 10:13:35;;;;;;;0.90;0.73;;;;;;;-143.84;29.84;45169.03;5088363;28;20880;-59
2024/01/11 10:16:10;;;;;;;0.80;0.50;;;;;;;-143.84;29.92;45170.94;5088355;28;20611;-59
2024/01/11 10:18:37;;;;;;;0.80;0.40;;;;;;;-143.84;30.58;45201.41;5088147;28;20529;-59
2024/01/11 10:21:05;;;;;;;1.00;0.90;;;;;;;-143.84;30.01;45146.19;5101114;28;20994;-59
2024/01/11 10:23:34;;;;;;;0.80;0.50;;;;;;;-143.84;29.76;45153.81;5107772;28;20427;-58
2024/01/11 10:26:02;;;;;;;0.80;0.60;;;;;;;-143.84;29.61;45167.13;5108542;28;20454;-59
2024/01/11 10:28:30;;;;;;;0.80;0.60;;;;;;;-143.84;29.60;45169.03;5108403;28;20435;-58
2024/01/11 10:30:58;;;;;;;1.20;0.50;;;;;;;-143.84;29.19;45157.59;5108503;28;20955;-59
2024/01/11 10:33:25;;;;;;;0.80;0.40;;;;;;;-143.84;29.32;45167.13;5110872;28;20435;-59
2024/01/11 10:35:52;;;;;;;0.80;0.50;;;;;;;-143.84;29.91;45189.97;5112092;28;20478;-60
2024/01/11 10:38:21;;;;;;;0.80;0.50;;;;;;;-143.84;29.73;45176.66;5111603;28;20445;-61
2024/01/11 10:40:48;;;;;;;0.80;0.40;;;;;;;-143.84;30.41;45148.09;5112324;28;20438;-61
2024/01/11 10:43:22;;;;;;;0.97;0.60;;;;;;;-143.84;30.32;45197.59;5112373;28;20454;-61
2024/01/11 10:45:53;;;;;;;1.63;0.70;;;;;;;-143.84;30.27;45146.19;5112104;28;20794;-61
2024/01/11 10:48:23;;;;;;;0.80;0.40;;;;;;;-143.84;30.00;45155.69;5111935;28;20504;-61
2024/01/11 10:50:56;;;;;;;0.80;0.40;;;;;;;-143.84;30.12;45178.56;5112342;28;20506;-60
2024/01/11 10:53:32;;;;;;;0.80;0.57;;;;;;;-143.84;30.94;45150.00;5111538;28;20439;-60
2024/01/11 10:56:00;;;;;;;2.20;0.70;;;;;;;-143.84;30.46;45189.97;5112003;28;20478;-60
2024/01/11 10:58:28;;;;;;;0.80;0.60;;;;;;;-143.84;30.67;45136.66;5111830;28;20928;-60
2024/01/11 11:00:59;;;;;;;0.90;0.67;;;;;;;-143.84;30.98;45165.22;5111856;28;20462;-60
2024/01/11 11:03:28;;;;;;;0.80;0.63;;;;;;;-143.84;30.66;45188.06;5111802;28;20450;-60
2024/01/11 11:05:56;;;;;;;0.80;0.63;;;;;;;-143.84;29.78;45161.41;5112037;28;20493;-60
2024/01/11 11:08:26;;;;;;;0.80;0.50;;;;;;;-143.84;29.90;45161.41;5111405;28;20496;-60
2024/01/11 11:10:57;;;;;;;1.10;0.90;;;;;;;-143.84;30.85;45163.31;5111699;28;20441;-60
2024/01/11 11:13:25;;;;;;;3.37;2.07;;;;;;;-143.84;30.23;45163.31;5111246;28;20907;-60
2024/01/11 11:15:53;;;;;;;0.90;0.60;;;;;;;-143.84;30.96;45157.59;5111711;28;20489;-60
2024/01/11 11:18:22;;;;;;;0.80;0.50;;;;;;;-143.84;30.89;45170.94;5111765;28;20443;-60